Detall de PIREP

Printer-friendly versionPDF version

[2010/09/19 06:57:00]
Flight IATA:CT2212
Pilot Number:026
Company ICAO:CAT
Aircraft Type:DC85/A
PAX:136
Departing Airport: LFMP
Destination Airport: LFST
Alternate Airport:LFSB
Online: VATSIM
Route:SIJAN A27 MOU G21 EPL
Flight Level:FL180
No Slew and time accel
No pause
Crash detect
Detect pilot in Cockpit between each 30 and 45 minutes
06:57 Zero fuel Weight: 188027 Lbs, Fuel Weight: 26997 Lbs
06:57 VATSIM:LFMP 190600Z 31008KT 9999 FEW050 15/07 Q1017 NOSIG
06:57 VATSIM:LFST 190630Z VRB02KT 9999 FEW050 07/06 Q1020 NOSIG
06:58 VOICE CATALONIAN / LFMP HUB ROUTES
07:03 Parking Brakes off
07:08 Take-off
07:08 Take off Weight: 214228 Lbs
07:08 Wind: 312º @ 008 Knots Heading: 328º
07:08 POS N42º 44´ 55´´ E002º 51´ 58´´
07:08 Gear Up: 171 Knots
07:08 Flaps:2 at 171 Knots
07:10 Flaps:1 at 229 Knots
07:13 Flaps:0 at 290 Knots
07:13 TOC
07:13 Fuel Weight: 23596 Lb
07:23 Wind:326º@020 Knots Heading: 005º Ground Speed: 402 Knots Altitude 18143 ft
07:38 Wind:354º@002 Knots Heading: 017º Ground Speed: 411 Knots Altitude 18228 ft
07:53 Wind:331º@011 Knots Heading: 041º Ground Speed: 412 Knots Altitude 18202 ft
08:04 TOD
08:04 Fuel Weight: 11616 Lb
08:08 Wind:311º@002 Knots Heading: 088º Ground Speed: 329 Knots Altitude 12627 ft
08:17 Flaps:1 at 231 Knots
08:17 Flaps:2 at 221 Knots
08:18 Gear Down: 216 Knots
08:18 Flaps:3 at 215 Knots
08:18 Flaps:4 at 173 Knots
08:19 Flaps:5 at 178 Knots
08:21 TouchDown:Rate -288 ft/min Speed: 141 Knots
08:21 VATSIM:LFST 190800Z VRB01KT 9999 FEW011 11/06 Q1020 NOSIG
08:21 Land
08:21 Wind:218º@004 Knots
08:21 Heading: 049º
08:21 Flight Duration: 01:13
08:21 Landing Weight: 198083 Lbs
08:21 POS N48º 32´ 20´´ E007º 37´ 47´´
08:23 Parking brakes on
08:23 Block to Block Duration: 01:20
08:23 Final Fuel: 9825 Lbls
08:23 Spent Fuel: 17171 Lbls
08:23 Flight Length: 444 NM
08:23 TOD Land Length: 73 NM

Exportar CSV

Powered by Drupal - Modified by Danger4k